sensor_id;sensor_type;location;lat;lon;timestamp;P1;durP1;ratioP1;P2;durP2;ratioP2
74551;SDS011;63025;55.472;38.432;2022-11-20T00:00:13;12.32;;;7.28;;
74551;SDS011;63025;55.472;38.432;2022-11-20T00:02:39;9.88;;;6.47;;
74551;SDS011;63025;55.472;38.432;2022-11-20T00:05:05;12.60;;;6.78;;
74551;SDS011;63025;55.472;38.432;2022-11-20T00:07:31;15.25;;;7.90;;
74551;SDS011;63025;55.472;38.432;2022-11-20T00:09:57;11.05;;;7.15;;
74551;SDS011;63025;55.472;38.432;2022-11-20T00:12:23;11.80;;;6.65;;
74551;SDS011;63025;55.472;38.432;2022-11-20T00:14:49;10.93;;;6.57;;
74551;SDS011;63025;55.472;38.432;2022-11-20T00:17:14;11.63;;;6.95;;
74551;SDS011;63025;55.472;38.432;2022-11-20T00:19:40;12.52;;;6.93;;
74551;SDS011;63025;55.472;38.432;2022-11-20T00:22:06;12.88;;;7.25;;
74551;SDS011;63025;55.472;38.432;2022-11-20T00:24:32;11.68;;;6.38;;
74551;SDS011;63025;55.472;38.432;2022-11-20T00:26:58;10.20;;;6.25;;
74551;SDS011;63025;55.472;38.432;2022-11-20T00:29:24;10.75;;;6.22;;
74551;SDS011;63025;55.472;38.432;2022-11-20T00:31:50;11.20;;;6.38;;
74551;SDS011;63025;55.472;38.432;2022-11-20T00:34:16;14.85;;;7.50;;
74551;SDS011;63025;55.472;38.432;2022-11-20T00:36:41;14.30;;;7.53;;
74551;SDS011;63025;55.472;38.432;2022-11-20T00:39:07;11.68;;;6.95;;
74551;SDS011;63025;55.472;38.432;2022-11-20T00:41:33;12.95;;;7.00;;
74551;SDS011;63025;55.472;38.432;2022-11-20T00:43:59;11.50;;;6.43;;
74551;SDS011;63025;55.472;38.432;2022-11-20T00:46:26;9.70;;;5.88;;
74551;SDS011;63025;55.472;38.432;2022-11-20T00:48:52;14.15;;;7.63;;
74551;SDS011;63025;55.472;38.432;2022-11-20T00:51:19;17.92;;;8.68;;
74551;SDS011;63025;55.472;38.432;2022-11-20T00:53:47;17.13;;;8.68;;
74551;SDS011;63025;55.472;38.432;2022-11-20T00:56:14;15.30;;;7.65;;
74551;SDS011;63025;55.472;38.432;2022-11-20T00:58:43;11.93;;;6.60;;
74551;SDS011;63025;55.472;38.432;2022-11-20T01:01:14;11.52;;;6.80;;
74551;SDS011;63025;55.472;38.432;2022-11-20T01:03:45;14.60;;;7.78;;
74551;SDS011;63025;55.472;38.432;2022-11-20T01:06:13;13.68;;;7.00;;
74551;SDS011;63025;55.472;38.432;2022-11-20T01:08:43;15.68;;;7.75;;
74551;SDS011;63025;55.472;38.432;2022-11-20T01:11:21;15.20;;;7.60;;
74551;SDS011;63025;55.472;38.432;2022-11-20T01:13:52;17.27;;;8.63;;
74551;SDS011;63025;55.472;38.432;2022-11-20T01:16:19;15.57;;;7.95;;
74551;SDS011;63025;55.472;38.432;2022-11-20T01:18:50;13.32;;;7.53;;
74551;SDS011;63025;55.472;38.432;2022-11-20T01:21:22;14.70;;;7.97;;
74551;SDS011;63025;55.472;38.432;2022-11-20T01:23:55;13.52;;;7.60;;
74551;SDS011;63025;55.472;38.432;2022-11-20T01:26:24;12.55;;;7.03;;
74551;SDS011;63025;55.472;38.432;2022-11-20T01:28:53;13.65;;;7.50;;
74551;SDS011;63025;55.472;38.432;2022-11-20T01:31:21;10.45;;;6.15;;
74551;SDS011;63025;55.472;38.432;2022-11-20T01:33:48;13.88;;;7.68;;
74551;SDS011;63025;55.472;38.432;2022-11-20T01:36:16;12.57;;;7.22;;
74551;SDS011;63025;55.472;38.432;2022-11-20T01:38:43;10.02;;;6.40;;
74551;SDS011;63025;55.472;38.432;2022-11-20T01:41:11;10.32;;;6.03;;
74551;SDS011;63025;55.472;38.432;2022-11-20T01:43:58;9.55;;;6.30;;
74551;SDS011;63025;55.472;38.432;2022-11-20T01:46:25;12.32;;;6.55;;
74551;SDS011;63025;55.472;38.432;2022-11-20T01:48:54;10.85;;;6.70;;
74551;SDS011;63025;55.472;38.432;2022-11-20T01:52:01;10.68;;;6.18;;
74551;SDS011;63025;55.472;38.432;2022-11-20T01:54:32;9.48;;;6.28;;
74551;SDS011;63025;55.472;38.432;2022-11-20T01:57:03;12.00;;;6.50;;
74551;SDS011;63025;55.472;38.432;2022-11-20T01:59:33;10.68;;;5.97;;
74551;SDS011;63025;55.472;38.432;2022-11-20T02:02:00;9.57;;;5.82;;
74551;SDS011;63025;55.472;38.432;2022-11-20T02:04:26;9.45;;;5.47;;
74551;SDS011;63025;55.472;38.432;2022-11-20T02:06:57;10.00;;;5.50;;
74551;SDS011;63025;55.472;38.432;2022-11-20T02:09:26;9.32;;;5.72;;
74551;SDS011;63025;55.472;38.432;2022-11-20T02:11:53;9.43;;;5.45;;
74551;SDS011;63025;55.472;38.432;2022-11-20T02:14:19;9.65;;;6.03;;
74551;SDS011;63025;55.472;38.432;2022-11-20T02:16:47;10.98;;;6.18;;
74551;SDS011;63025;55.472;38.432;2022-11-20T02:19:32;9.35;;;5.82;;
74551;SDS011;63025;55.472;38.432;2022-11-20T02:24:27;8.82;;;5.47;;
74551;SDS011;63025;55.472;38.432;2022-11-20T02:26:54;9.35;;;5.60;;
74551;SDS011;63025;55.472;38.432;2022-11-20T02:29:35;9.57;;;5.75;;
74551;SDS011;63025;55.472;38.432;2022-11-20T02:32:05;9.07;;;5.57;;
74551;SDS011;63025;55.472;38.432;2022-11-20T02:34:31;8.95;;;5.70;;
74551;SDS011;63025;55.472;38.432;2022-11-20T02:36:57;10.60;;;6.10;;
74551;SDS011;63025;55.472;38.432;2022-11-20T02:39:25;10.05;;;6.45;;
74551;SDS011;63025;55.472;38.432;2022-11-20T02:41:53;11.38;;;6.45;;
74551;SDS011;63025;55.472;38.432;2022-11-20T02:44:21;12.18;;;6.00;;
74551;SDS011;63025;55.472;38.432;2022-11-20T02:46:47;11.02;;;6.47;;
74551;SDS011;63025;55.472;38.432;2022-11-20T02:49:12;9.88;;;6.00;;
74551;SDS011;63025;55.472;38.432;2022-11-20T02:51:38;10.15;;;6.03;;
74551;SDS011;63025;55.472;38.432;2022-11-20T02:54:04;10.68;;;6.15;;
74551;SDS011;63025;55.472;38.432;2022-11-20T02:56:30;11.30;;;6.13;;
74551;SDS011;63025;55.472;38.432;2022-11-20T02:58:56;12.50;;;6.78;;
74551;SDS011;63025;55.472;38.432;2022-11-20T03:01:22;10.63;;;6.35;;
74551;SDS011;63025;55.472;38.432;2022-11-20T03:03:48;11.43;;;6.53;;
74551;SDS011;63025;55.472;38.432;2022-11-20T03:06:14;9.70;;;5.97;;
74551;SDS011;63025;55.472;38.432;2022-11-20T03:08:41;11.43;;;6.18;;
74551;SDS011;63025;55.472;38.432;2022-11-20T03:11:09;11.73;;;6.38;;
74551;SDS011;63025;55.472;38.432;2022-11-20T03:13:35;10.13;;;5.68;;
74551;SDS011;63025;55.472;38.432;2022-11-20T03:16:05;10.65;;;5.57;;
74551;SDS011;63025;55.472;38.432;2022-11-20T03:18:32;12.90;;;6.82;;
74551;SDS011;63025;55.472;38.432;2022-11-20T03:20:58;14.55;;;7.50;;
74551;SDS011;63025;55.472;38.432;2022-11-20T03:23:24;9.18;;;5.95;;
74551;SDS011;63025;55.472;38.432;2022-11-20T03:25:51;10.68;;;5.78;;
74551;SDS011;63025;55.472;38.432;2022-11-20T03:28:17;8.68;;;5.63;;
74551;SDS011;63025;55.472;38.432;2022-11-20T03:30:44;11.05;;;6.30;;
74551;SDS011;63025;55.472;38.432;2022-11-20T03:33:10;11.88;;;6.47;;
74551;SDS011;63025;55.472;38.432;2022-11-20T03:35:36;14.70;;;7.57;;
74551;SDS011;63025;55.472;38.432;2022-11-20T03:38:02;12.93;;;6.38;;
74551;SDS011;63025;55.472;38.432;2022-11-20T03:40:27;10.63;;;6.45;;
74551;SDS011;63025;55.472;38.432;2022-11-20T03:42:54;11.48;;;6.13;;
74551;SDS011;63025;55.472;38.432;2022-11-20T03:45:20;10.43;;;6.15;;
74551;SDS011;63025;55.472;38.432;2022-11-20T03:47:47;10.45;;;6.07;;
74551;SDS011;63025;55.472;38.432;2022-11-20T03:50:13;12.32;;;6.38;;
74551;SDS011;63025;55.472;38.432;2022-11-20T03:52:39;11.70;;;6.43;;
74551;SDS011;63025;55.472;38.432;2022-11-20T03:55:06;11.10;;;6.28;;
74551;SDS011;63025;55.472;38.432;2022-11-20T03:57:33;12.20;;;7.35;;
74551;SDS011;63025;55.472;38.432;2022-11-20T03:59:59;13.40;;;8.02;;
74551;SDS011;63025;55.472;38.432;2022-11-20T04:02:24;11.95;;;6.70;;
74551;SDS011;63025;55.472;38.432;2022-11-20T04:04:50;9.98;;;6.50;;
74551;SDS011;63025;55.472;38.432;2022-11-20T04:07:16;12.65;;;6.90;;
74551;SDS011;63025;55.472;38.432;2022-11-20T04:09:42;11.52;;;6.60;;
74551;SDS011;63025;55.472;38.432;2022-11-20T04:12:08;11.23;;;6.38;;
74551;SDS011;63025;55.472;38.432;2022-11-20T04:14:34;11.48;;;6.78;;
74551;SDS011;63025;55.472;38.432;2022-11-20T04:17:00;12.48;;;7.55;;
74551;SDS011;63025;55.472;38.432;2022-11-20T04:19:26;11.35;;;6.85;;
74551;SDS011;63025;55.472;38.432;2022-11-20T04:21:51;13.68;;;7.03;;
74551;SDS011;63025;55.472;38.432;2022-11-20T04:24:17;12.85;;;7.22;;
74551;SDS011;63025;55.472;38.432;2022-11-20T04:26:43;14.85;;;7.80;;
74551;SDS011;63025;55.472;38.432;2022-11-20T04:29:10;15.25;;;7.72;;
74551;SDS011;63025;55.472;38.432;2022-11-20T04:31:36;18.10;;;8.70;;
74551;SDS011;63025;55.472;38.432;2022-11-20T04:34:03;15.35;;;8.38;;
74551;SDS011;63025;55.472;38.432;2022-11-20T04:36:30;16.73;;;7.80;;
74551;SDS011;63025;55.472;38.432;2022-11-20T04:38:57;18.10;;;8.27;;
74551;SDS011;63025;55.472;38.432;2022-11-20T04:41:29;12.98;;;6.88;;
74551;SDS011;63025;55.472;38.432;2022-11-20T04:43:58;12.10;;;7.43;;
74551;SDS011;63025;55.472;38.432;2022-11-20T04:46:29;11.30;;;6.45;;
74551;SDS011;63025;55.472;38.432;2022-11-20T04:48:56;11.85;;;6.35;;
74551;SDS011;63025;55.472;38.432;2022-11-20T04:51:22;10.75;;;6.55;;
74551;SDS011;63025;55.472;38.432;2022-11-20T04:53:48;10.93;;;6.63;;
74551;SDS011;63025;55.472;38.432;2022-11-20T04:56:14;10.52;;;7.00;;
74551;SDS011;63025;55.472;38.432;2022-11-20T04:58:41;11.98;;;6.90;;
74551;SDS011;63025;55.472;38.432;2022-11-20T05:01:09;11.52;;;7.00;;
74551;SDS011;63025;55.472;38.432;2022-11-20T05:03:37;13.38;;;7.22;;
74551;SDS011;63025;55.472;38.432;2022-11-20T05:06:04;12.93;;;7.45;;
74551;SDS011;63025;55.472;38.432;2022-11-20T05:08:31;12.82;;;7.30;;
74551;SDS011;63025;55.472;38.432;2022-11-20T05:11:04;12.27;;;7.18;;
74551;SDS011;63025;55.472;38.432;2022-11-20T05:13:32;13.98;;;7.32;;
74551;SDS011;63025;55.472;38.432;2022-11-20T05:16:03;13.30;;;7.53;;
74551;SDS011;63025;55.472;38.432;2022-11-20T05:18:39;13.88;;;7.72;;
74551;SDS011;63025;55.472;38.432;2022-11-20T05:21:06;13.95;;;7.70;;
74551;SDS011;63025;55.472;38.432;2022-11-20T05:23:34;13.18;;;7.93;;
74551;SDS011;63025;55.472;38.432;2022-11-20T05:26:00;12.43;;;7.43;;
74551;SDS011;63025;55.472;38.432;2022-11-20T05:28:27;11.35;;;7.25;;
74551;SDS011;63025;55.472;38.432;2022-11-20T05:30:55;11.23;;;6.82;;
74551;SDS011;63025;55.472;38.432;2022-11-20T05:33:21;13.45;;;6.97;;
74551;SDS011;63025;55.472;38.432;2022-11-20T05:35:48;12.88;;;7.57;;
74551;SDS011;63025;55.472;38.432;2022-11-20T05:38:14;14.55;;;7.57;;
74551;SDS011;63025;55.472;38.432;2022-11-20T05:40:40;11.40;;;7.18;;
74551;SDS011;63025;55.472;38.432;2022-11-20T05:43:06;12.30;;;6.82;;
74551;SDS011;63025;55.472;38.432;2022-11-20T05:45:32;12.32;;;6.78;;
74551;SDS011;63025;55.472;38.432;2022-11-20T05:47:58;12.50;;;6.65;;
74551;SDS011;63025;55.472;38.432;2022-11-20T05:50:26;10.93;;;6.68;;
74551;SDS011;63025;55.472;38.432;2022-11-20T05:52:53;24.67;;;13.82;;
74551;SDS011;63025;55.472;38.432;2022-11-20T05:55:19;11.90;;;6.82;;
74551;SDS011;63025;55.472;38.432;2022-11-20T05:57:45;77.97;;;36.15;;
74551;SDS011;63025;55.472;38.432;2022-11-20T06:00:11;15.82;;;9.50;;
74551;SDS011;63025;55.472;38.432;2022-11-20T06:02:37;13.75;;;7.55;;
74551;SDS011;63025;55.472;38.432;2022-11-20T06:05:03;17.80;;;9.35;;
74551;SDS011;63025;55.472;38.432;2022-11-20T06:07:30;11.80;;;6.88;;
74551;SDS011;63025;55.472;38.432;2022-11-20T06:09:56;18.42;;;9.43;;
74551;SDS011;63025;55.472;38.432;2022-11-20T06:12:21;16.38;;;9.82;;
74551;SDS011;63025;55.472;38.432;2022-11-20T06:14:47;15.52;;;8.02;;
74551;SDS011;63025;55.472;38.432;2022-11-20T06:17:14;16.25;;;8.70;;
74551;SDS011;63025;55.472;38.432;2022-11-20T06:19:40;13.63;;;7.63;;
74551;SDS011;63025;55.472;38.432;2022-11-20T06:22:06;12.88;;;6.97;;
74551;SDS011;63025;55.472;38.432;2022-11-20T06:24:31;13.38;;;7.75;;
74551;SDS011;63025;55.472;38.432;2022-11-20T06:26:57;13.77;;;7.55;;
74551;SDS011;63025;55.472;38.432;2022-11-20T06:29:23;37.65;;;15.57;;
74551;SDS011;63025;55.472;38.432;2022-11-20T06:31:49;56.03;;;25.20;;
74551;SDS011;63025;55.472;38.432;2022-11-20T06:34:15;14.05;;;7.35;;
74551;SDS011;63025;55.472;38.432;2022-11-20T06:36:40;25.83;;;13.15;;
74551;SDS011;63025;55.472;38.432;2022-11-20T06:39:06;11.15;;;6.20;;
74551;SDS011;63025;55.472;38.432;2022-11-20T06:41:32;48.67;;;21.45;;
74551;SDS011;63025;55.472;38.432;2022-11-20T06:43:58;12.95;;;7.50;;
74551;SDS011;63025;55.472;38.432;2022-11-20T06:46:24;13.27;;;7.72;;
74551;SDS011;63025;55.472;38.432;2022-11-20T06:48:50;14.95;;;9.07;;
74551;SDS011;63025;55.472;38.432;2022-11-20T06:51:16;11.82;;;6.78;;
74551;SDS011;63025;55.472;38.432;2022-11-20T06:53:43;32.78;;;23.42;;
74551;SDS011;63025;55.472;38.432;2022-11-20T06:56:09;12.07;;;7.28;;
74551;SDS011;63025;55.472;38.432;2022-11-20T06:58:35;13.15;;;7.57;;
74551;SDS011;63025;55.472;38.432;2022-11-20T07:01:03;21.55;;;16.50;;
74551;SDS011;63025;55.472;38.432;2022-11-20T07:03:31;23.02;;;16.05;;
74551;SDS011;63025;55.472;38.432;2022-11-20T07:05:57;14.82;;;10.25;;
74551;SDS011;63025;55.472;38.432;2022-11-20T07:08:25;12.82;;;8.25;;
74551;SDS011;63025;55.472;38.432;2022-11-20T07:10:51;20.90;;;14.32;;
74551;SDS011;63025;55.472;38.432;2022-11-20T07:13:17;18.63;;;11.35;;
74551;SDS011;63025;55.472;38.432;2022-11-20T07:15:43;11.40;;;7.53;;
74551;SDS011;63025;55.472;38.432;2022-11-20T07:18:09;17.35;;;11.43;;
74551;SDS011;63025;55.472;38.432;2022-11-20T07:20:35;13.82;;;7.82;;
74551;SDS011;63025;55.472;38.432;2022-11-20T07:23:01;13.57;;;8.65;;
74551;SDS011;63025;55.472;38.432;2022-11-20T07:25:27;11.15;;;6.20;;
74551;SDS011;63025;55.472;38.432;2022-11-20T07:27:57;13.60;;;7.18;;
74551;SDS011;63025;55.472;38.432;2022-11-20T07:30:24;11.98;;;6.50;;
74551;SDS011;63025;55.472;38.432;2022-11-20T07:32:51;9.95;;;6.28;;
74551;SDS011;63025;55.472;38.432;2022-11-20T07:35:18;14.93;;;7.13;;
74551;SDS011;63025;55.472;38.432;2022-11-20T07:37:45;19.10;;;10.25;;
74551;SDS011;63025;55.472;38.432;2022-11-20T07:40:11;20.73;;;10.05;;
74551;SDS011;63025;55.472;38.432;2022-11-20T07:42:50;15.63;;;8.65;;
74551;SDS011;63025;55.472;38.432;2022-11-20T07:45:18;13.73;;;7.43;;
74551;SDS011;63025;55.472;38.432;2022-11-20T07:47:45;12.30;;;6.85;;
74551;SDS011;63025;55.472;38.432;2022-11-20T07:50:11;14.52;;;7.85;;
74551;SDS011;63025;55.472;38.432;2022-11-20T07:52:37;9.77;;;5.80;;
74551;SDS011;63025;55.472;38.432;2022-11-20T07:55:03;12.48;;;7.22;;
74551;SDS011;63025;55.472;38.432;2022-11-20T07:57:30;14.93;;;7.90;;
74551;SDS011;63025;55.472;38.432;2022-11-20T07:59:56;30.98;;;13.00;;
74551;SDS011;63025;55.472;38.432;2022-11-20T08:02:23;30.63;;;13.05;;
74551;SDS011;63025;55.472;38.432;2022-11-20T08:04:49;23.52;;;10.60;;
74551;SDS011;63025;55.472;38.432;2022-11-20T08:07:14;20.27;;;10.35;;
74551;SDS011;63025;55.472;38.432;2022-11-20T08:09:40;16.58;;;8.60;;
74551;SDS011;63025;55.472;38.432;2022-11-20T08:12:06;12.10;;;6.75;;
74551;SDS011;63025;55.472;38.432;2022-11-20T08:14:50;17.95;;;9.00;;
74551;SDS011;63025;55.472;38.432;2022-11-20T08:17:16;16.35;;;8.02;;
74551;SDS011;63025;55.472;38.432;2022-11-20T08:19:42;12.52;;;6.90;;
74551;SDS011;63025;55.472;38.432;2022-11-20T08:22:08;11.15;;;6.97;;
74551;SDS011;63025;55.472;38.432;2022-11-20T08:24:34;10.57;;;6.60;;
74551;SDS011;63025;55.472;38.432;2022-11-20T08:27:00;10.43;;;6.28;;
74551;SDS011;63025;55.472;38.432;2022-11-20T08:29:26;18.55;;;9.02;;
74551;SDS011;63025;55.472;38.432;2022-11-20T08:31:52;16.92;;;8.98;;
74551;SDS011;63025;55.472;38.432;2022-11-20T08:34:18;15.57;;;8.32;;
74551;SDS011;63025;55.472;38.432;2022-11-20T08:36:44;10.73;;;6.20;;
74551;SDS011;63025;55.472;38.432;2022-11-20T08:39:11;13.00;;;7.70;;
74551;SDS011;63025;55.472;38.432;2022-11-20T08:41:38;18.23;;;9.52;;
74551;SDS011;63025;55.472;38.432;2022-11-20T08:44:05;20.05;;;9.63;;
74551;SDS011;63025;55.472;38.432;2022-11-20T08:49:03;29.23;;;12.43;;
74551;SDS011;63025;55.472;38.432;2022-11-20T08:51:30;14.95;;;8.07;;
74551;SDS011;63025;55.472;38.432;2022-11-20T08:53:55;18.90;;;9.13;;
74551;SDS011;63025;55.472;38.432;2022-11-20T08:56:21;10.65;;;6.53;;
74551;SDS011;63025;55.472;38.432;2022-11-20T08:58:49;11.15;;;6.90;;
74551;SDS011;63025;55.472;38.432;2022-11-20T09:01:15;11.98;;;7.13;;
74551;SDS011;63025;55.472;38.432;2022-11-20T09:03:42;11.27;;;6.95;;
74551;SDS011;63025;55.472;38.432;2022-11-20T09:06:08;9.32;;;6.13;;
74551;SDS011;63025;55.472;38.432;2022-11-20T09:08:34;12.63;;;6.82;;
74551;SDS011;63025;55.472;38.432;2022-11-20T09:11:01;12.82;;;7.05;;
74551;SDS011;63025;55.472;38.432;2022-11-20T09:13:28;13.82;;;7.85;;
74551;SDS011;63025;55.472;38.432;2022-11-20T09:15:55;13.73;;;8.05;;
74551;SDS011;63025;55.472;38.432;2022-11-20T09:18:23;13.32;;;7.70;;
74551;SDS011;63025;55.472;38.432;2022-11-20T09:20:51;13.15;;;8.10;;
74551;SDS011;63025;55.472;38.432;2022-11-20T09:23:21;13.18;;;7.68;;
74551;SDS011;63025;55.472;38.432;2022-11-20T09:25:47;12.30;;;7.65;;
74551;SDS011;63025;55.472;38.432;2022-11-20T09:28:13;16.42;;;8.55;;
74551;SDS011;63025;55.472;38.432;2022-11-20T09:30:39;16.27;;;8.85;;
74551;SDS011;63025;55.472;38.432;2022-11-20T09:33:05;12.85;;;8.15;;
74551;SDS011;63025;55.472;38.432;2022-11-20T09:35:32;12.43;;;7.68;;
74551;SDS011;63025;55.472;38.432;2022-11-20T09:38:03;15.20;;;8.05;;
74551;SDS011;63025;55.472;38.432;2022-11-20T09:40:30;13.95;;;8.27;;
74551;SDS011;63025;55.472;38.432;2022-11-20T09:45:59;17.08;;;8.00;;
74551;SDS011;63025;55.472;38.432;2022-11-20T09:48:53;15.85;;;8.70;;
74551;SDS011;63025;55.472;38.432;2022-11-20T09:54:35;15.90;;;7.82;;
74551;SDS011;63025;55.472;38.432;2022-11-20T09:57:05;14.52;;;8.00;;
74551;SDS011;63025;55.472;38.432;2022-11-20T09:59:41;15.43;;;8.73;;
74551;SDS011;63025;55.472;38.432;2022-11-20T10:02:15;13.95;;;8.35;;
74551;SDS011;63025;55.472;38.432;2022-11-20T10:05:10;16.02;;;8.80;;
74551;SDS011;63025;55.472;38.432;2022-11-20T10:07:41;15.00;;;8.95;;
74551;SDS011;63025;55.472;38.432;2022-11-20T10:10:32;15.35;;;9.05;;
74551;SDS011;63025;55.472;38.432;2022-11-20T10:19:05;14.55;;;8.70;;
74551;SDS011;63025;55.472;38.432;2022-11-20T10:30:16;15.80;;;9.33;;
74551;SDS011;63025;55.472;38.432;2022-11-20T10:32:46;15.52;;;9.75;;
74551;SDS011;63025;55.472;38.432;2022-11-20T10:35:18;20.00;;;10.48;;
74551;SDS011;63025;55.472;38.432;2022-11-20T10:37:58;22.65;;;11.00;;
74551;SDS011;63025;55.472;38.432;2022-11-20T10:40:28;19.90;;;10.93;;
74551;SDS011;63025;55.472;38.432;2022-11-20T10:45:58;22.05;;;11.73;;
74551;SDS011;63025;55.472;38.432;2022-11-20T10:48:27;22.20;;;11.50;;
74551;SDS011;63025;55.472;38.432;2022-11-20T10:56:38;23.65;;;12.30;;
74551;SDS011;63025;55.472;38.432;2022-11-20T11:01:52;23.75;;;13.00;;
74551;SDS011;63025;55.472;38.432;2022-11-20T11:07:08;23.00;;;12.02;;
74551;SDS011;63025;55.472;38.432;2022-11-20T11:09:41;23.52;;;12.68;;
74551;SDS011;63025;55.472;38.432;2022-11-20T11:12:09;23.75;;;13.07;;
74551;SDS011;63025;55.472;38.432;2022-11-20T11:14:46;22.60;;;12.18;;
74551;SDS011;63025;55.472;38.432;2022-11-20T11:17:26;25.35;;;14.15;;
74551;SDS011;63025;55.472;38.432;2022-11-20T11:20:04;26.67;;;13.10;;
74551;SDS011;63025;55.472;38.432;2022-11-20T11:22:47;25.30;;;12.57;;
74551;SDS011;63025;55.472;38.432;2022-11-20T11:25:35;27.88;;;13.63;;
74551;SDS011;63025;55.472;38.432;2022-11-20T11:30:43;25.17;;;13.38;;
74551;SDS011;63025;55.472;38.432;2022-11-20T11:33:10;26.77;;;13.10;;
74551;SDS011;63025;55.472;38.432;2022-11-20T11:35:47;26.52;;;13.90;;
74551;SDS011;63025;55.472;38.432;2022-11-20T11:38:35;28.67;;;13.93;;
74551;SDS011;63025;55.472;38.432;2022-11-20T11:41:04;29.92;;;15.07;;
74551;SDS011;63025;55.472;38.432;2022-11-20T11:43:33;31.95;;;15.90;;
74551;SDS011;63025;55.472;38.432;2022-11-20T11:46:29;33.88;;;16.65;;
74551;SDS011;63025;55.472;38.432;2022-11-20T11:49:01;34.53;;;16.70;;
74551;SDS011;63025;55.472;38.432;2022-11-20T11:51:56;39.65;;;16.52;;
74551;SDS011;63025;55.472;38.432;2022-11-20T11:54:32;32.65;;;15.55;;
74551;SDS011;63025;55.472;38.432;2022-11-20T12:05:24;24.80;;;11.85;;
74551;SDS011;63025;55.472;38.432;2022-11-20T12:08:01;22.52;;;11.73;;
74551;SDS011;63025;55.472;38.432;2022-11-20T12:13:30;24.40;;;12.55;;
74551;SDS011;63025;55.472;38.432;2022-11-20T12:16:03;21.88;;;11.40;;
74551;SDS011;63025;55.472;38.432;2022-11-20T12:18:30;22.38;;;11.93;;
74551;SDS011;63025;55.472;38.432;2022-11-20T12:26:32;24.90;;;11.27;;
74551;SDS011;63025;55.472;38.432;2022-11-20T12:32:31;24.92;;;11.23;;
74551;SDS011;63025;55.472;38.432;2022-11-20T12:45:00;20.88;;;10.60;;
74551;SDS011;63025;55.472;38.432;2022-11-20T12:47:36;22.92;;;11.32;;
74551;SDS011;63025;55.472;38.432;2022-11-20T12:55:25;29.45;;;12.65;;
74551;SDS011;63025;55.472;38.432;2022-11-20T12:58:09;29.58;;;12.15;;
74551;SDS011;63025;55.472;38.432;2022-11-20T13:07:02;36.15;;;14.32;;
74551;SDS011;63025;55.472;38.432;2022-11-20T13:09:31;27.83;;;12.48;;
74551;SDS011;63025;55.472;38.432;2022-11-20T13:12:08;27.63;;;12.77;;
74551;SDS011;63025;55.472;38.432;2022-11-20T13:17:09;33.63;;;13.20;;
74551;SDS011;63025;55.472;38.432;2022-11-20T13:19:53;36.30;;;14.18;;
74551;SDS011;63025;55.472;38.432;2022-11-20T13:22:27;34.58;;;13.57;;
74551;SDS011;63025;55.472;38.432;2022-11-20T13:24:55;32.92;;;14.13;;
74551;SDS011;63025;55.472;38.432;2022-11-20T13:27:46;32.85;;;14.18;;
74551;SDS011;63025;55.472;38.432;2022-11-20T13:30:14;34.97;;;13.80;;
74551;SDS011;63025;55.472;38.432;2022-11-20T13:32:50;30.17;;;14.10;;
74551;SDS011;63025;55.472;38.432;2022-11-20T13:37:59;37.38;;;14.73;;
74551;SDS011;63025;55.472;38.432;2022-11-20T13:40:36;43.25;;;16.08;;
74551;SDS011;63025;55.472;38.432;2022-11-20T13:43:08;31.50;;;13.23;;
74551;SDS011;63025;55.472;38.432;2022-11-20T13:45:36;37.17;;;15.57;;
74551;SDS011;63025;55.472;38.432;2022-11-20T13:48:18;34.33;;;14.13;;
74551;SDS011;63025;55.472;38.432;2022-11-20T13:50:50;39.80;;;14.35;;
74551;SDS011;63025;55.472;38.432;2022-11-20T13:58:49;43.33;;;16.83;;
74551;SDS011;63025;55.472;38.432;2022-11-20T14:01:21;43.47;;;15.15;;
74551;SDS011;63025;55.472;38.432;2022-11-20T14:03:50;40.20;;;15.75;;
74551;SDS011;63025;55.472;38.432;2022-11-20T14:08:54;41.53;;;15.85;;
74551;SDS011;63025;55.472;38.432;2022-11-20T14:11:22;40.60;;;16.70;;
74551;SDS011;63025;55.472;38.432;2022-11-20T14:13:52;43.28;;;18.02;;
74551;SDS011;63025;55.472;38.432;2022-11-20T14:18:49;38.83;;;16.45;;
74551;SDS011;63025;55.472;38.432;2022-11-20T14:21:25;42.28;;;18.25;;
74551;SDS011;63025;55.472;38.432;2022-11-20T14:24:18;46.38;;;16.27;;
74551;SDS011;63025;55.472;38.432;2022-11-20T14:26:43;43.80;;;17.95;;
74551;SDS011;63025;55.472;38.432;2022-11-20T14:29:12;51.97;;;19.75;;
74551;SDS011;63025;55.472;38.432;2022-11-20T14:31:39;44.28;;;19.33;;
74551;SDS011;63025;55.472;38.432;2022-11-20T14:34:26;40.10;;;15.85;;
74551;SDS011;63025;55.472;38.432;2022-11-20T14:37:01;35.80;;;14.65;;
74551;SDS011;63025;55.472;38.432;2022-11-20T14:39:35;37.90;;;14.93;;
74551;SDS011;63025;55.472;38.432;2022-11-20T14:42:10;33.80;;;14.68;;
74551;SDS011;63025;55.472;38.432;2022-11-20T14:44:41;40.63;;;16.05;;
74551;SDS011;63025;55.472;38.432;2022-11-20T14:47:08;43.97;;;16.08;;
74551;SDS011;63025;55.472;38.432;2022-11-20T14:49:38;44.55;;;16.05;;
74551;SDS011;63025;55.472;38.432;2022-11-20T14:52:17;46.78;;;16.33;;
74551;SDS011;63025;55.472;38.432;2022-11-20T14:54:49;38.78;;;15.95;;
74551;SDS011;63025;55.472;38.432;2022-11-20T14:57:23;42.45;;;16.02;;
74551;SDS011;63025;55.472;38.432;2022-11-20T15:00:04;43.85;;;15.40;;
74551;SDS011;63025;55.472;38.432;2022-11-20T15:02:33;41.50;;;16.50;;
74551;SDS011;63025;55.472;38.432;2022-11-20T15:05:00;38.50;;;16.70;;
74551;SDS011;63025;55.472;38.432;2022-11-20T15:07:30;42.65;;;17.33;;
74551;SDS011;63025;55.472;38.432;2022-11-20T15:10:21;38.17;;;16.73;;
74551;SDS011;63025;55.472;38.432;2022-11-20T15:12:50;44.83;;;19.80;;
74551;SDS011;63025;55.472;38.432;2022-11-20T15:15:35;60.05;;;23.52;;
74551;SDS011;63025;55.472;38.432;2022-11-20T15:18:12;46.75;;;18.05;;
74551;SDS011;63025;55.472;38.432;2022-11-20T15:20:40;42.75;;;16.63;;
74551;SDS011;63025;55.472;38.432;2022-11-20T15:23:12;45.30;;;17.25;;
74551;SDS011;63025;55.472;38.432;2022-11-20T15:25:40;45.55;;;18.58;;
74551;SDS011;63025;55.472;38.432;2022-11-20T15:28:15;50.20;;;19.42;;
74551;SDS011;63025;55.472;38.432;2022-11-20T15:30:54;41.55;;;17.60;;
74551;SDS011;63025;55.472;38.432;2022-11-20T15:33:22;41.97;;;16.90;;
74551;SDS011;63025;55.472;38.432;2022-11-20T15:35:48;43.25;;;18.38;;
74551;SDS011;63025;55.472;38.432;2022-11-20T15:38:14;50.17;;;18.92;;
74551;SDS011;63025;55.472;38.432;2022-11-20T15:40:40;54.05;;;21.52;;
74551;SDS011;63025;55.472;38.432;2022-11-20T15:43:06;55.08;;;21.77;;
74551;SDS011;63025;55.472;38.432;2022-11-20T15:45:34;56.97;;;22.42;;
74551;SDS011;63025;55.472;38.432;2022-11-20T15:48:04;46.72;;;18.52;;
74551;SDS011;63025;55.472;38.432;2022-11-20T15:50:37;40.80;;;17.35;;
74551;SDS011;63025;55.472;38.432;2022-11-20T15:53:08;46.03;;;16.38;;
74551;SDS011;63025;55.472;38.432;2022-11-20T15:55:35;44.72;;;17.05;;
74551;SDS011;63025;55.472;38.432;2022-11-20T15:58:01;44.05;;;16.95;;
74551;SDS011;63025;55.472;38.432;2022-11-20T16:00:27;43.95;;;17.35;;
74551;SDS011;63025;55.472;38.432;2022-11-20T16:02:53;42.85;;;16.70;;
74551;SDS011;63025;55.472;38.432;2022-11-20T16:05:19;47.75;;;18.58;;
74551;SDS011;63025;55.472;38.432;2022-11-20T16:07:48;47.88;;;17.45;;
74551;SDS011;63025;55.472;38.432;2022-11-20T16:44:20;40.85;;;17.95;;